CheckWX is a tool to help pilots better visualize weather data.  It is not intended as a substitute for an official pre-flight weather briefing.

07:03:39 UTC

SBRB TAF
Plácido de Castro Airport
Rio Branco, Brazil
TAF SBRB 170300Z 1706/1718 00000KT CAVOK TN22/1708Z TX32/1718Z BECMG 1711/1713 16005KT 3000 BR BKN005 BECMG 1714/1715 12005KT 9999 NSW SCT025 BECMG 1716/1718 SCT030 FEW035TCU RMK PGY

Jun-17@
06:00 UTC

Jun-17 @ 06:00 UTC

Jun-17@
11:00 UTC

Jun-17 @ 11:00 UTC

TAF SBRB 170300Z 1706/1718 00000KT CAVOK TN22/1708Z TX32/1718Z
Cloud Levels
  • No significant clouds

Jun-17@
11:00 UTC

Jun-17 @ 11:00 UTC

Jun-17@
14:00 UTC

Jun-17 @ 14:00 UTC

BECMG 1711/1713 16005KT 3000 BR BKN005

Becoming

Becoming Conditions expected by Mon, Jun 17, 2019 @ 13:00 UTC

Wind
  • 160° at 5 KTS
Conditions
Mist
Cloud Levels
  • Broken at 500' AGL

Jun-17@
14:00 UTC

Jun-17 @ 14:00 UTC

Jun-17@
16:00 UTC

Jun-17 @ 16:00 UTC

BECMG 1714/1715 12005KT 9999 NSW SCT025

Becoming

Becoming Conditions expected by Mon, Jun 17, 2019 @ 15:00 UTC

Wind
  • 120° at 5 KTS
Conditions
No significant weather
Cloud Levels
  • Scattered at 2,500' AGL

Jun-17@
16:00 UTC

Jun-17 @ 16:00 UTC

Jun-17@
18:00 UTC

Jun-17 @ 18:00 UTC

BECMG 1716/1718 SCT030 FEW035TCU RMK PGY

Becoming

Becoming Conditions expected by Mon, Jun 17, 2019 @ 18:00 UTC

Wind
  • 120° at 5 KTS
Conditions
No significant weather
Cloud Levels
  • Scattered at 3,000' AGL
  • Few at 3,500' AGL